Terminal Aerodrome Forecast
Issued by NWS Jackson, KY

Home | Current Version | Previous Version | Text Only | Print | Product List | Glossary On
Versions: 1 2 3 4 5 6 7 8 9 10 11 12 13 14 15
000
FTUS43 KJKL 171141
TAFLOZ
TAF
KLOZ 171141Z 1712/1812 19008KT 6SM -SHRA OVC030 WS020/21040KT
     FM171500 21012G21KT P6SM -SHRA OVC015
     FM172000 23011G19KT P6SM VCSH OVC015
     FM180300 27009KT P6SM VCSH OVC015
     FM180600 27006KT 3SM BR OVC010=

USA.gov is the U.S. government's official web portal to all federal, state and local government web resources and services.